createdAt,value
2018-09-20T00:00:52.046Z,100787
2018-09-20T00:03:20.884Z,100788
2018-09-20T00:05:49.717Z,100791
2018-09-20T00:08:18.548Z,100795
2018-09-20T00:10:48.147Z,100791
2018-09-20T00:13:16.973Z,100790
2018-09-20T00:15:45.806Z,100793
2018-09-20T00:18:14.638Z,100789
2018-09-20T00:20:43.479Z,100786
2018-09-20T00:23:12.313Z,100787
2018-09-20T00:25:41.159Z,100787
2018-09-20T00:28:09.995Z,100781
2018-09-20T00:30:38.829Z,100779
2018-09-20T00:33:07.668Z,100777
2018-09-20T00:35:36.510Z,100777
2018-09-20T00:38:05.346Z,100772
2018-09-20T00:40:34.926Z,100784
2018-09-20T00:43:03.758Z,100782
2018-09-20T00:45:32.593Z,100784
2018-09-20T00:48:01.425Z,100798
2018-09-20T00:50:30.263Z,100785
2018-09-20T00:52:59.104Z,100781
2018-09-20T00:55:27.940Z,100777
2018-09-20T00:57:56.765Z,100786
2018-09-20T01:00:25.633Z,100783
2018-09-20T01:02:54.459Z,100790
2018-09-20T01:05:23.295Z,100786
2018-09-20T01:07:52.130Z,100784
2018-09-20T01:10:21.710Z,100788
2018-09-20T01:12:50.558Z,100786
2018-09-20T01:15:19.406Z,100780
2018-09-20T01:17:48.221Z,100779
2018-09-20T01:20:17.063Z,100783
2018-09-20T01:22:45.898Z,100782
2018-09-20T01:25:14.741Z,100782
2018-09-20T01:27:43.586Z,100779
2018-09-20T01:30:12.427Z,100783
2018-09-20T01:32:41.276Z,100777
2018-09-20T01:35:10.123Z,100781
2018-09-20T01:37:38.942Z,100777
2018-09-20T01:40:07.835Z,100776
2018-09-20T01:42:36.615Z,100777
2018-09-20T01:45:05.453Z,100776
2018-09-20T01:47:34.295Z,100775
2018-09-20T01:50:03.135Z,100766
2018-09-20T01:52:31.963Z,100778
2018-09-20T01:55:00.794Z,100780
2018-09-20T01:57:29.631Z,100777
2018-09-20T01:59:58.464Z,100784
2018-09-20T02:02:27.293Z,100775
2018-09-20T02:04:56.142Z,100776
2018-09-20T02:07:24.974Z,100780
2018-09-20T02:09:53.806Z,100783
2018-09-20T02:12:22.632Z,100787
2018-09-20T02:14:51.477Z,100791
2018-09-20T02:17:20.307Z,100777
2018-09-20T02:19:49.164Z,100784
2018-09-20T02:22:18.012Z,100779
2018-09-20T02:24:47.576Z,100784
2018-09-20T02:27:16.497Z,100784
2018-09-20T02:29:45.321Z,100778
2018-09-20T02:32:14.157Z,100779
2018-09-20T02:34:42.980Z,100789
2018-09-20T02:37:11.820Z,100786
2018-09-20T02:39:40.647Z,100791
2018-09-20T02:42:10.217Z,100800
2018-09-20T02:44:39.061Z,100801
2018-09-20T02:47:07.893Z,100795
2018-09-20T02:49:36.729Z,100791
2018-09-20T02:52:06.337Z,100788
2018-09-20T02:54:35.138Z,100793
2018-09-20T02:57:03.982Z,100784
2018-09-20T02:59:32.834Z,100789
2018-09-20T03:02:01.665Z,100782
2018-09-20T03:04:30.494Z,100779
2018-09-20T03:06:59.336Z,100779
2018-09-20T03:09:28.175Z,100787
2018-09-20T03:11:57.012Z,100782
2018-09-20T03:14:25.853Z,100784
2018-09-20T03:16:54.696Z,100781
2018-09-20T03:19:23.534Z,100783
2018-09-20T03:21:52.366Z,100790
2018-09-20T03:24:21.218Z,100796
2018-09-20T03:26:59.136Z,100788
2018-09-20T03:29:24.865Z,100785
2018-09-20T03:31:54.548Z,100791
2018-09-20T03:34:23.377Z,100795
2018-09-20T03:36:52.215Z,100790
2018-09-20T03:39:21.056Z,100788
2018-09-20T03:41:49.902Z,100790
2018-09-20T03:44:18.728Z,100789
2018-09-20T03:46:47.568Z,100788
2018-09-20T03:49:16.407Z,100792
2018-09-20T03:51:45.982Z,100792
2018-09-20T03:54:14.818Z,100797
2018-09-20T03:56:44.397Z,100795
2018-09-20T03:59:13.239Z,100797
2018-09-20T04:01:42.069Z,100808
2018-09-20T04:04:11.653Z,100812
2018-09-20T04:06:40.490Z,100804
2018-09-20T04:09:09.325Z,100801
2018-09-20T04:11:38.157Z,100804
2018-09-20T04:14:06.990Z,100804
2018-09-20T04:16:35.820Z,100798
2018-09-20T04:19:04.651Z,100797
2018-09-20T04:21:33.488Z,100791
2018-09-20T04:24:02.321Z,100799
2018-09-20T04:26:31.165Z,100793
2018-09-20T04:28:59.994Z,100797
2018-09-20T04:31:28.914Z,100795
2018-09-20T04:33:57.717Z,100796
2018-09-20T04:36:26.544Z,100800
2018-09-20T04:38:55.392Z,100803
2018-09-20T04:41:24.222Z,100801
2018-09-20T04:43:53.069Z,100809
2018-09-20T04:46:21.902Z,100804
2018-09-20T04:48:50.742Z,100814
2018-09-20T04:51:19.566Z,100813
2018-09-20T04:53:48.401Z,100817
2018-09-20T04:56:17.976Z,100820
2018-09-20T04:58:47.044Z,100830
2018-09-20T05:01:15.876Z,100820
2018-09-20T05:03:44.720Z,100825
2018-09-20T05:06:13.559Z,100827
2018-09-20T05:08:43.155Z,100831
2018-09-20T05:11:12.657Z,100850
2018-09-20T05:13:41.448Z,100846
2018-09-20T05:16:10.289Z,100844
2018-09-20T05:18:39.125Z,100839
2018-09-20T05:21:07.957Z,100834
2018-09-20T05:23:36.801Z,100829
2018-09-20T05:26:05.642Z,100832
2018-09-20T05:28:34.469Z,100827
2018-09-20T05:31:03.301Z,100832
2018-09-20T05:33:32.134Z,100833
2018-09-20T05:36:00.963Z,100831
2018-09-20T05:38:29.800Z,100828
2018-09-20T05:40:58.636Z,100832
2018-09-20T05:43:28.260Z,100829
2018-09-20T05:45:57.043Z,100830
2018-09-20T05:48:25.875Z,100828
2018-09-20T05:50:54.736Z,100822
2018-09-20T05:53:24.304Z,100823
2018-09-20T05:55:53.156Z,100832
2018-09-20T05:58:21.998Z,100827
2018-09-20T06:00:50.827Z,100828
2018-09-20T06:03:19.669Z,100824
2018-09-20T06:05:49.283Z,100821
2018-09-20T06:08:18.092Z,100827
2018-09-20T06:10:46.942Z,100830
2018-09-20T06:13:15.871Z,100835
2018-09-20T06:15:44.683Z,100830
2018-09-20T06:18:13.517Z,100834
2018-09-20T06:20:43.124Z,100827
2018-09-20T06:23:11.952Z,100833
2018-09-20T06:25:40.802Z,100834
2018-09-20T06:28:10.386Z,100837
2018-09-20T06:30:39.220Z,100847
2018-09-20T06:33:08.064Z,100849
2018-09-20T06:35:36.909Z,100856
2018-09-20T06:38:05.749Z,100854
2018-09-20T06:40:34.593Z,100867
2018-09-20T06:43:03.448Z,100865
2018-09-20T06:45:33.044Z,100853
2018-09-20T06:48:01.900Z,100853
2018-09-20T06:50:30.764Z,100846
2018-09-20T06:52:59.581Z,100846
2018-09-20T06:55:28.423Z,100851
2018-09-20T06:57:58.009Z,100852
2018-09-20T07:00:26.864Z,100850
2018-09-20T07:02:55.708Z,100846
2018-09-20T07:05:25.290Z,100844
2018-09-20T07:07:54.143Z,100844
2018-09-20T07:10:22.976Z,100845
2018-09-20T07:12:51.819Z,100845
2018-09-20T07:15:20.649Z,100849
2018-09-20T07:17:49.497Z,100843
2018-09-20T07:20:18.345Z,100847
2018-09-20T07:22:47.917Z,100852
2018-09-20T07:25:16.812Z,100853
2018-09-20T07:27:45.613Z,100857
2018-09-20T07:30:14.457Z,100854
2018-09-20T07:32:43.358Z,100867
2018-09-20T07:35:12.890Z,100869
2018-09-20T07:37:41.723Z,100864
2018-09-20T07:40:10.588Z,100860
2018-09-20T07:42:39.427Z,100861
2018-09-20T07:45:08.264Z,100866
2018-09-20T07:47:37.122Z,100864
2018-09-20T07:50:05.988Z,100868
2018-09-20T07:52:34.846Z,100871
2018-09-20T07:55:04.428Z,100869
2018-09-20T07:57:33.280Z,100865
2018-09-20T08:00:02.118Z,100863
2018-09-20T08:02:30.970Z,100873
2018-09-20T08:04:59.804Z,100865
2018-09-20T08:07:29.381Z,100871
2018-09-20T08:09:58.221Z,100862
2018-09-20T08:12:27.067Z,100871
2018-09-20T08:14:55.919Z,100873
2018-09-20T08:17:24.749Z,100870
2018-09-20T08:19:54.345Z,100870
2018-09-20T08:22:23.187Z,100873
2018-09-20T08:24:52.025Z,100868
2018-09-20T08:27:20.903Z,100867
2018-09-20T08:29:49.739Z,100880
2018-09-20T08:32:18.582Z,100874
2018-09-20T08:34:47.417Z,100878
2018-09-20T08:37:16.327Z,100875
2018-09-20T08:39:45.096Z,100871
2018-09-20T08:42:13.932Z,100875
2018-09-20T08:44:42.778Z,100876
2018-09-20T08:47:11.616Z,100872
2018-09-20T08:49:40.459Z,100868
2018-09-20T08:52:09.365Z,100863
2018-09-20T08:54:38.918Z,100861
2018-09-20T08:57:08.371Z,100861
2018-09-20T08:59:37.168Z,100858
2018-09-20T09:02:06.007Z,100858
2018-09-20T09:04:34.909Z,100857
2018-09-20T09:07:03.676Z,100855
2018-09-20T09:09:33.198Z,100850
2018-09-20T09:12:03.141Z,100850
2018-09-20T09:14:33.850Z,100861
2018-09-20T09:17:02.880Z,100846
2018-09-20T09:19:32.513Z,100844
2018-09-20T09:24:41.728Z,100848
2018-09-20T09:27:10.580Z,100849
2018-09-20T09:29:39.426Z,100850
2018-09-20T09:32:08.250Z,100850
2018-09-20T09:34:37.090Z,100845
2018-09-20T09:37:05.916Z,100854
2018-09-20T09:39:34.773Z,100846
2018-09-20T09:42:03.649Z,100838
2018-09-20T09:44:33.204Z,100832
2018-09-20T09:47:02.049Z,100829
2018-09-20T09:49:30.884Z,100829
2018-09-20T09:51:59.732Z,100824
2018-09-20T09:54:28.634Z,100818
2018-09-20T09:56:58.152Z,100819
2018-09-20T09:59:26.999Z,100813
2018-09-20T10:01:55.826Z,100806
2018-09-20T10:04:24.664Z,100810
2018-09-20T10:06:54.280Z,100806
2018-09-20T10:09:23.091Z,100804
2018-09-20T10:11:51.951Z,100798
2018-09-20T10:14:20.810Z,100796
2018-09-20T10:16:49.656Z,100799
2018-09-20T10:19:18.498Z,100791
2018-09-20T10:21:47.340Z,100796
2018-09-20T10:24:16.177Z,100790
2018-09-20T10:26:45.002Z,100787
2018-09-20T10:29:13.842Z,100792
2018-09-20T10:31:42.679Z,100785
2018-09-20T10:34:11.571Z,100783
2018-09-20T10:36:40.372Z,100774
2018-09-20T10:39:09.204Z,100777
2018-09-20T10:41:38.052Z,100771
2018-09-20T10:44:06.892Z,100774
2018-09-20T10:46:36.479Z,100756
2018-09-20T10:49:05.360Z,100776
2018-09-20T10:51:34.206Z,100760
2018-09-20T10:54:03.046Z,100752
2018-09-20T10:56:31.869Z,100747
2018-09-20T10:59:01.444Z,100753
2018-09-20T11:01:30.278Z,100740
2018-09-20T11:03:59.136Z,100745
2018-09-20T11:06:27.981Z,100739
2018-09-20T11:08:56.825Z,100742
2018-09-20T11:11:26.389Z,100738
2018-09-20T11:13:55.215Z,100737
2018-09-20T11:16:24.135Z,100732
2018-09-20T11:18:52.938Z,100737
2018-09-20T11:21:21.780Z,100730
2018-09-20T11:23:50.623Z,100721
2018-09-20T11:26:19.461Z,100724
2018-09-20T11:28:49.027Z,100723
2018-09-20T11:31:17.871Z,100714
2018-09-20T11:33:46.723Z,100712
2018-09-20T11:36:15.579Z,100716
2018-09-20T11:38:44.405Z,100704
2018-09-20T11:41:13.241Z,100708
2018-09-20T11:43:42.080Z,100697
2018-09-20T11:46:10.927Z,100701
2018-09-20T11:48:39.762Z,100699
2018-09-20T11:51:08.608Z,100698
2018-09-20T11:53:37.441Z,100694
2018-09-20T11:56:06.284Z,100692
2018-09-20T11:58:35.135Z,100694
2018-09-20T12:01:03.992Z,100685
2018-09-20T12:03:32.827Z,100694
2018-09-20T12:06:01.682Z,100680
2018-09-20T12:08:30.508Z,100681
2018-09-20T12:10:59.343Z,100682
2018-09-20T12:13:28.178Z,100682
2018-09-20T12:15:57.821Z,100672
2018-09-20T12:18:26.663Z,100655
2018-09-20T12:20:56.239Z,100663
2018-09-20T12:23:25.080Z,100655
2018-09-20T12:25:54.041Z,100653
2018-09-20T12:28:22.766Z,100671
2018-09-20T12:30:51.611Z,100652
2018-09-20T12:33:20.469Z,100648
2018-09-20T12:35:49.510Z,100633
2018-09-20T12:38:18.244Z,100631
2018-09-20T12:40:46.971Z,100628
2018-09-20T12:43:16.604Z,100630
2018-09-20T12:45:45.375Z,100636
2018-09-20T12:48:15.020Z,100628
2018-09-20T12:50:43.802Z,100621
2018-09-20T12:53:12.660Z,100619
2018-09-20T12:55:42.243Z,100614
2018-09-20T12:58:11.114Z,100622
2018-09-20T13:00:39.963Z,100612
2018-09-20T13:03:09.551Z,100607
2018-09-20T13:05:38.391Z,100602
2018-09-20T13:08:07.236Z,100597
2018-09-20T13:10:36.063Z,100607
2018-09-20T13:13:04.967Z,100605
2018-09-20T13:15:33.756Z,100600
2018-09-20T13:18:02.591Z,100599
2018-09-20T13:20:32.228Z,100595
2018-09-20T13:23:01.007Z,100592
2018-09-20T13:25:29.874Z,100591
2018-09-20T13:27:58.678Z,100587
2018-09-20T13:30:27.527Z,100593
2018-09-20T13:32:56.357Z,100567
2018-09-20T13:35:25.200Z,100578
2018-09-20T13:37:54.023Z,100566
2018-09-20T13:40:22.863Z,100572
2018-09-20T13:42:51.727Z,100579
2018-09-20T13:45:20.552Z,100574
2018-09-20T13:47:49.383Z,100569
2018-09-20T13:50:18.962Z,100560
2018-09-20T13:52:47.821Z,100570
2018-09-20T13:55:16.655Z,100548
2018-09-20T13:57:46.243Z,100556
2018-09-20T14:00:26.843Z,100563
2018-09-20T14:02:59.086Z,100552
2018-09-20T14:05:27.953Z,100556
2018-09-20T14:07:56.798Z,100550
2018-09-20T14:10:25.628Z,100539
2018-09-20T14:12:54.459Z,100537
2018-09-20T14:15:23.312Z,100541
2018-09-20T14:17:52.133Z,100543
2018-09-20T14:20:21.707Z,100533
2018-09-20T14:22:50.535Z,100544
2018-09-20T14:25:19.381Z,100535
2018-09-20T14:27:48.211Z,100530
2018-09-20T14:30:17.786Z,100525
2018-09-20T14:32:46.626Z,100526
2018-09-20T14:35:15.475Z,100524
2018-09-20T14:37:44.294Z,100518
2018-09-20T14:40:13.129Z,100513
2018-09-20T14:42:41.960Z,100517
2018-09-20T14:45:11.578Z,100517
2018-09-20T14:47:41.127Z,100514
2018-09-20T14:50:09.964Z,100507
2018-09-20T14:52:38.870Z,100501
2018-09-20T14:55:07.650Z,100499
2018-09-20T14:57:36.487Z,100497
2018-09-20T15:00:05.323Z,100493
2018-09-20T15:02:34.895Z,100489
2018-09-20T15:05:03.750Z,100499
2018-09-20T15:07:32.619Z,100504
2018-09-20T15:10:01.460Z,100494
2018-09-20T15:12:30.295Z,100491
2018-09-20T15:14:59.152Z,100484
2018-09-20T15:17:27.973Z,100485
2018-09-20T15:19:56.834Z,100484
2018-09-20T15:22:26.440Z,100479
2018-09-20T15:24:55.252Z,100478
2018-09-20T15:27:24.095Z,100477
2018-09-20T15:29:52.929Z,100483
2018-09-20T15:32:22.505Z,100474
2018-09-20T15:34:51.338Z,100466
2018-09-20T15:37:20.181Z,100472
2018-09-20T15:39:49.029Z,100468
2018-09-20T15:42:17.859Z,100468
2018-09-20T15:44:46.714Z,100466
2018-09-20T15:47:15.585Z,100462
2018-09-20T15:49:44.390Z,100459
2018-09-20T15:52:13.228Z,100462
2018-09-20T15:54:42.055Z,100456
2018-09-20T15:57:10.886Z,100455
2018-09-20T15:59:39.731Z,100454
2018-09-20T16:02:08.590Z,100451
2018-09-20T16:04:38.167Z,100458
2018-09-20T16:07:06.996Z,100452
2018-09-20T16:09:36.572Z,100452
2018-09-20T16:12:06.144Z,100455
2018-09-20T16:14:35.076Z,100443
2018-09-20T16:17:03.848Z,100449
2018-09-20T16:19:32.688Z,100460
2018-09-20T16:22:01.532Z,100441
2018-09-20T16:24:30.970Z,100440
2018-09-20T16:27:00.555Z,100439
2018-09-20T16:29:30.973Z,100434
2018-09-20T16:32:01.161Z,100425
2018-09-20T16:34:30.348Z,100425
2018-09-20T16:39:37.800Z,100420
2018-09-20T16:42:07.911Z,100417
2018-09-20T16:44:37.488Z,100417
2018-09-20T16:47:06.322Z,100419
2018-09-20T16:49:35.173Z,100412
2018-09-20T16:52:04.005Z,100415
2018-09-20T16:54:32.867Z,100409
2018-09-20T16:57:01.723Z,100410
2018-09-20T16:59:30.552Z,100401
2018-09-20T17:01:59.401Z,100401
2018-09-20T17:04:28.233Z,100401
2018-09-20T17:06:57.811Z,100398
2018-09-20T17:09:26.662Z,100399
2018-09-20T17:11:55.490Z,100399
2018-09-20T17:14:24.400Z,100391
2018-09-20T17:16:53.199Z,100397
2018-09-20T17:19:22.042Z,100396
2018-09-20T17:21:50.885Z,100398
2018-09-20T17:24:19.734Z,100396
2018-09-20T17:26:48.565Z,100402
2018-09-20T17:29:17.419Z,100399
2018-09-20T17:31:46.248Z,100397
2018-09-20T17:34:15.160Z,100403
2018-09-20T17:36:43.976Z,100398
2018-09-20T17:39:12.791Z,100393
2018-09-20T17:41:41.899Z,100395
2018-09-20T17:44:10.746Z,100390
2018-09-20T17:46:39.590Z,100388
2018-09-20T17:49:09.159Z,100391
2018-09-20T17:51:37.990Z,100390
2018-09-20T17:54:07.771Z,100386
2018-09-20T17:56:36.518Z,100381
2018-09-20T17:59:05.361Z,100384
2018-09-20T18:01:34.204Z,100386
2018-09-20T18:04:03.035Z,100390
2018-09-20T18:06:31.888Z,100390
2018-09-20T18:09:00.734Z,100388
2018-09-20T18:11:30.322Z,100380
2018-09-20T18:13:59.195Z,100375
2018-09-20T18:16:28.032Z,100380
2018-09-20T18:18:56.870Z,100382
2018-09-20T18:21:25.725Z,100386
2018-09-20T18:23:54.549Z,100388
2018-09-20T18:26:23.390Z,100377
2018-09-20T18:28:52.248Z,100384
2018-09-20T18:31:21.096Z,100383
2018-09-20T18:33:49.936Z,100377
2018-09-20T18:36:19.556Z,100382
2018-09-20T18:38:49.127Z,100376
2018-09-20T18:41:17.966Z,100386
2018-09-20T18:43:46.817Z,100382
2018-09-20T18:46:15.665Z,100382
2018-09-20T18:48:44.534Z,100380
2018-09-20T18:51:13.371Z,100385
2018-09-20T18:53:42.216Z,100379
2018-09-20T18:56:11.058Z,100383
2018-09-20T18:58:39.903Z,100382
2018-09-20T19:01:08.785Z,100384
2018-09-20T19:03:37.613Z,100373
2018-09-20T19:06:06.456Z,100385
2018-09-20T19:08:35.319Z,100370
2018-09-20T19:11:04.890Z,100371
2018-09-20T19:13:33.716Z,100371
2018-09-20T19:16:03.315Z,100376
2018-09-20T19:18:32.898Z,100370
2018-09-20T19:21:01.741Z,100369
2018-09-20T19:23:31.331Z,100366
2018-09-20T19:26:00.196Z,100364
2018-09-20T19:28:29.035Z,100365
2018-09-20T19:30:57.873Z,100356
2018-09-20T19:33:27.298Z,100357
2018-09-20T19:35:56.159Z,100362
2018-09-20T19:38:24.995Z,100350
2018-09-20T19:40:53.905Z,100351
2018-09-20T19:43:22.705Z,100348
2018-09-20T19:45:51.537Z,100346
2018-09-20T19:48:20.368Z,100346
2018-09-20T19:50:49.221Z,100344
2018-09-20T19:53:18.814Z,100342
2018-09-20T19:55:47.663Z,100340
2018-09-20T19:58:16.519Z,100335
2018-09-20T20:00:45.366Z,100337
2018-09-20T20:03:14.197Z,100335
2018-09-20T20:05:43.083Z,100331
2018-09-20T20:08:12.678Z,100331
2018-09-20T20:10:42.253Z,100322
2018-09-20T20:13:11.095Z,100334
2018-09-20T20:15:40.673Z,100317
2018-09-20T20:18:10.257Z,100312
2018-09-20T20:20:39.102Z,100313
2018-09-20T20:23:07.940Z,100309
2018-09-20T20:25:36.793Z,100307
2018-09-20T20:28:05.654Z,100300
2018-09-20T20:30:34.503Z,100305
2018-09-20T20:33:03.327Z,100296
2018-09-20T20:35:32.911Z,100287
2018-09-20T20:38:01.772Z,100292
2018-09-20T20:40:30.611Z,100292
2018-09-20T20:43:00.199Z,100288
2018-09-20T20:45:29.058Z,100289
2018-09-20T20:47:57.896Z,100287
2018-09-20T20:50:27.473Z,100285
2018-09-20T20:52:56.329Z,100286
2018-09-20T20:55:25.169Z,100280
2018-09-20T20:57:54.790Z,100285
2018-09-20T21:00:23.635Z,100284
2018-09-20T21:02:52.464Z,100281
2018-09-20T21:05:22.111Z,100283
2018-09-20T21:07:50.952Z,100272
2018-09-20T21:10:19.801Z,100271
2018-09-20T21:12:48.645Z,100267
2018-09-20T21:15:17.484Z,100268
2018-09-20T21:17:46.314Z,100264
2018-09-20T21:20:15.918Z,100259
2018-09-20T21:22:44.745Z,100252
2018-09-20T21:25:13.585Z,100253
2018-09-20T21:27:42.452Z,100252
2018-09-20T21:30:11.276Z,100259
2018-09-20T21:32:40.965Z,100251
2018-09-20T21:35:09.687Z,100254
2018-09-20T21:37:39.261Z,100255
2018-09-20T21:40:08.099Z,100251
2018-09-20T21:42:36.947Z,100252
2018-09-20T21:45:06.527Z,100247
2018-09-20T21:47:35.364Z,100247
2018-09-20T21:50:04.952Z,100242
2018-09-20T21:52:33.782Z,100241
2018-09-20T21:55:02.612Z,100242
2018-09-20T21:57:31.443Z,100239
2018-09-20T22:00:00.291Z,100238
2018-09-20T22:02:29.125Z,100226
2018-09-20T22:04:57.978Z,100228
2018-09-20T22:07:26.822Z,100229
2018-09-20T22:09:55.678Z,100240
2018-09-20T22:12:24.513Z,100236
2018-09-20T22:14:53.335Z,100236
2018-09-20T22:17:22.758Z,100225
2018-09-20T22:19:52.332Z,100230
2018-09-20T22:22:21.168Z,100223
2018-09-20T22:24:50.001Z,100222
2018-09-20T22:27:18.838Z,100211
2018-09-20T22:29:47.678Z,100220
2018-09-20T22:32:16.514Z,100215
2018-09-20T22:34:46.107Z,100212
2018-09-20T22:37:15.686Z,100210
2018-09-20T22:39:44.551Z,100208
2018-09-20T22:42:13.361Z,100203
2018-09-20T22:44:42.222Z,100194
2018-09-20T22:47:11.054Z,100194
2018-09-20T22:49:39.895Z,100198
2018-09-20T22:52:08.727Z,100194
2018-09-20T22:54:37.573Z,100190
2018-09-20T22:57:06.414Z,100188
2018-09-20T22:59:35.249Z,100188
2018-09-20T23:02:04.102Z,100177
2018-09-20T23:04:32.974Z,100169
2018-09-20T23:07:01.800Z,100180
2018-09-20T23:09:30.639Z,100175
2018-09-20T23:11:59.471Z,100169
2018-09-20T23:14:29.061Z,100174
2018-09-20T23:16:57.887Z,100170
2018-09-20T23:19:26.714Z,100178
2018-09-20T23:21:55.542Z,100181
2018-09-20T23:24:25.121Z,100181
2018-09-20T23:26:53.948Z,100186
2018-09-20T23:29:22.783Z,100181
2018-09-20T23:31:51.620Z,100178
2018-09-20T23:34:20.461Z,100179
2018-09-20T23:36:49.291Z,100173
2018-09-20T23:39:18.130Z,100170
2018-09-20T23:41:46.969Z,100160
2018-09-20T23:44:16.581Z,100162
2018-09-20T23:46:45.379Z,100159
2018-09-20T23:49:14.211Z,100158
2018-09-20T23:51:43.041Z,100151
2018-09-20T23:54:11.870Z,100156
2018-09-20T23:56:40.697Z,100149
2018-09-20T23:59:09.545Z,100155
